sensor_id;sensor_type;location;lat;lon;timestamp;temperature;humidity
15127;DHT22;7664;52.008;4.748;2022-09-09T00:01:47;17.20;99.90
15127;DHT22;7664;52.008;4.748;2022-09-09T00:04:26;17.20;99.90
15127;DHT22;7664;52.008;4.748;2022-09-09T00:07:04;17.20;99.90
15127;DHT22;7664;52.008;4.748;2022-09-09T00:09:42;17.20;99.90
15127;DHT22;7664;52.008;4.748;2022-09-09T00:12:14;17.10;99.90
15127;DHT22;7664;52.008;4.748;2022-09-09T00:14:48;17.10;99.90
15127;DHT22;7664;52.008;4.748;2022-09-09T00:17:36;17.10;99.90
15127;DHT22;7664;52.008;4.748;2022-09-09T00:20:12;17.10;99.90
15127;DHT22;7664;52.008;4.748;2022-09-09T00:22:44;17.00;99.90
15127;DHT22;7664;52.008;4.748;2022-09-09T00:25:21;17.00;99.90
15127;DHT22;7664;52.008;4.748;2022-09-09T00:27:51;17.00;99.90
15127;DHT22;7664;52.008;4.748;2022-09-09T00:30:20;16.90;99.90
15127;DHT22;7664;52.008;4.748;2022-09-09T00:32:52;16.90;99.90
15127;DHT22;7664;52.008;4.748;2022-09-09T00:35:26;16.90;99.90
15127;DHT22;7664;52.008;4.748;2022-09-09T00:37:57;16.90;99.90
15127;DHT22;7664;52.008;4.748;2022-09-09T00:40:32;16.80;99.90
15127;DHT22;7664;52.008;4.748;2022-09-09T00:43:14;16.80;99.90
15127;DHT22;7664;52.008;4.748;2022-09-09T00:46:04;16.80;99.90
15127;DHT22;7664;52.008;4.748;2022-09-09T00:48:39;16.80;99.90
15127;DHT22;7664;52.008;4.748;2022-09-09T00:51:16;16.80;99.90
15127;DHT22;7664;52.008;4.748;2022-09-09T00:54:12;16.70;99.90
15127;DHT22;7664;52.008;4.748;2022-09-09T00:56:49;16.70;99.90
15127;DHT22;7664;52.008;4.748;2022-09-09T00:59:26;16.70;99.90
15127;DHT22;7664;52.008;4.748;2022-09-09T01:01:56;16.60;99.90
15127;DHT22;7664;52.008;4.748;2022-09-09T01:04:32;16.70;99.90
15127;DHT22;7664;52.008;4.748;2022-09-09T01:07:06;16.60;99.90
15127;DHT22;7664;52.008;4.748;2022-09-09T01:09:45;16.70;99.90
15127;DHT22;7664;52.008;4.748;2022-09-09T01:12:24;16.70;99.90
15127;DHT22;7664;52.008;4.748;2022-09-09T01:14:58;16.60;99.90
15127;DHT22;7664;52.008;4.748;2022-09-09T01:17:32;16.70;99.90
15127;DHT22;7664;52.008;4.748;2022-09-09T01:20:05;16.60;99.90
15127;DHT22;7664;52.008;4.748;2022-09-09T01:22:38;16.60;99.90
15127;DHT22;7664;52.008;4.748;2022-09-09T01:28:03;16.50;99.90
15127;DHT22;7664;52.008;4.748;2022-09-09T01:30:33;16.50;99.90
15127;DHT22;7664;52.008;4.748;2022-09-09T01:33:01;16.50;99.90
15127;DHT22;7664;52.008;4.748;2022-09-09T01:35:40;16.50;99.90
15127;DHT22;7664;52.008;4.748;2022-09-09T01:38:10;16.50;99.90
15127;DHT22;7664;52.008;4.748;2022-09-09T01:40:39;16.40;99.90
15127;DHT22;7664;52.008;4.748;2022-09-09T01:43:08;16.50;99.90
15127;DHT22;7664;52.008;4.748;2022-09-09T01:45:37;16.50;99.90
15127;DHT22;7664;52.008;4.748;2022-09-09T01:48:05;16.50;99.90
15127;DHT22;7664;52.008;4.748;2022-09-09T01:50:33;16.50;99.90
15127;DHT22;7664;52.008;4.748;2022-09-09T01:53:01;16.40;99.90
15127;DHT22;7664;52.008;4.748;2022-09-09T01:55:33;16.50;99.90
15127;DHT22;7664;52.008;4.748;2022-09-09T01:58:23;16.50;99.90
15127;DHT22;7664;52.008;4.748;2022-09-09T02:01:00;16.50;99.90
15127;DHT22;7664;52.008;4.748;2022-09-09T02:03:32;16.50;99.90
15127;DHT22;7664;52.008;4.748;2022-09-09T02:06:08;16.50;99.90
15127;DHT22;7664;52.008;4.748;2022-09-09T02:08:42;16.50;99.90
15127;DHT22;7664;52.008;4.748;2022-09-09T02:11:14;16.60;99.90
15127;DHT22;7664;52.008;4.748;2022-09-09T02:14:04;16.50;99.90
15127;DHT22;7664;52.008;4.748;2022-09-09T02:16:50;16.50;99.90
15127;DHT22;7664;52.008;4.748;2022-09-09T02:19:23;16.50;99.90
15127;DHT22;7664;52.008;4.748;2022-09-09T02:21:54;16.50;99.90
15127;DHT22;7664;52.008;4.748;2022-09-09T02:24:23;16.50;99.90
15127;DHT22;7664;52.008;4.748;2022-09-09T02:26:53;16.50;99.90
15127;DHT22;7664;52.008;4.748;2022-09-09T02:29:28;16.50;99.90
15127;DHT22;7664;52.008;4.748;2022-09-09T02:32:00;16.60;99.90
15127;DHT22;7664;52.008;4.748;2022-09-09T02:34:30;16.50;99.90
15127;DHT22;7664;52.008;4.748;2022-09-09T02:37:01;16.50;99.90
15127;DHT22;7664;52.008;4.748;2022-09-09T02:39:30;16.50;99.90
15127;DHT22;7664;52.008;4.748;2022-09-09T02:41:58;16.40;99.90
15127;DHT22;7664;52.008;4.748;2022-09-09T02:44:27;16.40;99.90
15127;DHT22;7664;52.008;4.748;2022-09-09T02:47:14;16.40;99.90
15127;DHT22;7664;52.008;4.748;2022-09-09T02:49:51;16.30;99.90
15127;DHT22;7664;52.008;4.748;2022-09-09T02:52:23;16.30;99.90
15127;DHT22;7664;52.008;4.748;2022-09-09T02:54:59;16.30;99.90
15127;DHT22;7664;52.008;4.748;2022-09-09T02:57:28;16.30;99.90
15127;DHT22;7664;52.008;4.748;2022-09-09T03:00:00;16.20;99.90
15127;DHT22;7664;52.008;4.748;2022-09-09T03:02:28;16.20;99.90
15127;DHT22;7664;52.008;4.748;2022-09-09T03:04:56;16.20;99.90
15127;DHT22;7664;52.008;4.748;2022-09-09T03:07:25;16.20;99.90
15127;DHT22;7664;52.008;4.748;2022-09-09T03:09:53;16.20;99.90
15127;DHT22;7664;52.008;4.748;2022-09-09T03:12:21;16.10;99.90
15127;DHT22;7664;52.008;4.748;2022-09-09T03:14:49;16.20;99.90
15127;DHT22;7664;52.008;4.748;2022-09-09T03:17:19;16.20;99.90
15127;DHT22;7664;52.008;4.748;2022-09-09T03:19:46;16.10;99.90
15127;DHT22;7664;52.008;4.748;2022-09-09T03:22:16;16.10;99.90
15127;DHT22;7664;52.008;4.748;2022-09-09T03:24:44;16.00;99.90
15127;DHT22;7664;52.008;4.748;2022-09-09T03:27:13;16.10;99.90
15127;DHT22;7664;52.008;4.748;2022-09-09T03:29:41;16.00;99.90
15127;DHT22;7664;52.008;4.748;2022-09-09T03:32:09;15.90;99.90
15127;DHT22;7664;52.008;4.748;2022-09-09T03:34:38;15.90;99.90
15127;DHT22;7664;52.008;4.748;2022-09-09T03:37:06;15.90;99.90
15127;DHT22;7664;52.008;4.748;2022-09-09T03:39:34;15.90;99.90
15127;DHT22;7664;52.008;4.748;2022-09-09T03:42:03;15.90;99.90
15127;DHT22;7664;52.008;4.748;2022-09-09T03:44:30;15.90;99.90
15127;DHT22;7664;52.008;4.748;2022-09-09T03:46:58;15.90;99.90
15127;DHT22;7664;52.008;4.748;2022-09-09T03:49:27;15.80;99.90
15127;DHT22;7664;52.008;4.748;2022-09-09T03:51:57;15.90;99.90
15127;DHT22;7664;52.008;4.748;2022-09-09T03:54:25;15.80;99.90
15127;DHT22;7664;52.008;4.748;2022-09-09T03:56:54;15.90;99.90
15127;DHT22;7664;52.008;4.748;2022-09-09T03:59:22;15.70;99.90
15127;DHT22;7664;52.008;4.748;2022-09-09T04:01:50;15.80;99.90
15127;DHT22;7664;52.008;4.748;2022-09-09T04:04:18;15.80;99.90
15127;DHT22;7664;52.008;4.748;2022-09-09T04:06:47;15.80;99.90
15127;DHT22;7664;52.008;4.748;2022-09-09T04:09:16;15.70;99.90
15127;DHT22;7664;52.008;4.748;2022-09-09T04:11:44;15.70;99.90
15127;DHT22;7664;52.008;4.748;2022-09-09T04:14:12;15.70;99.90
15127;DHT22;7664;52.008;4.748;2022-09-09T04:16:40;15.70;99.90
15127;DHT22;7664;52.008;4.748;2022-09-09T04:19:09;15.70;99.90
15127;DHT22;7664;52.008;4.748;2022-09-09T04:21:39;15.70;99.90
15127;DHT22;7664;52.008;4.748;2022-09-09T04:24:07;15.60;99.90
15127;DHT22;7664;52.008;4.748;2022-09-09T04:26:37;15.70;99.90
15127;DHT22;7664;52.008;4.748;2022-09-09T04:29:05;15.60;99.90
15127;DHT22;7664;52.008;4.748;2022-09-09T04:31:34;15.60;99.90
15127;DHT22;7664;52.008;4.748;2022-09-09T04:34:02;15.60;99.90
15127;DHT22;7664;52.008;4.748;2022-09-09T04:36:31;15.60;99.90
15127;DHT22;7664;52.008;4.748;2022-09-09T04:38:59;15.60;99.90
15127;DHT22;7664;52.008;4.748;2022-09-09T04:41:28;15.60;99.90
15127;DHT22;7664;52.008;4.748;2022-09-09T04:43:59;15.60;99.90
15127;DHT22;7664;52.008;4.748;2022-09-09T04:46:27;15.50;99.90
15127;DHT22;7664;52.008;4.748;2022-09-09T04:48:55;15.50;99.90
15127;DHT22;7664;52.008;4.748;2022-09-09T04:51:23;15.50;99.90
15127;DHT22;7664;52.008;4.748;2022-09-09T04:53:51;15.50;99.90
15127;DHT22;7664;52.008;4.748;2022-09-09T04:56:20;15.60;99.90
15127;DHT22;7664;52.008;4.748;2022-09-09T04:58:49;15.50;99.90
15127;DHT22;7664;52.008;4.748;2022-09-09T05:01:19;15.60;99.90
15127;DHT22;7664;52.008;4.748;2022-09-09T05:03:48;15.60;99.90
15127;DHT22;7664;52.008;4.748;2022-09-09T05:06:19;15.60;99.90
15127;DHT22;7664;52.008;4.748;2022-09-09T05:08:47;15.50;99.90
15127;DHT22;7664;52.008;4.748;2022-09-09T05:11:17;15.50;99.90
15127;DHT22;7664;52.008;4.748;2022-09-09T05:13:46;15.50;99.90
15127;DHT22;7664;52.008;4.748;2022-09-09T05:16:14;15.50;99.90
15127;DHT22;7664;52.008;4.748;2022-09-09T05:18:44;15.60;99.90
15127;DHT22;7664;52.008;4.748;2022-09-09T05:21:14;15.60;99.90
15127;DHT22;7664;52.008;4.748;2022-09-09T05:23:44;15.60;99.90
15127;DHT22;7664;52.008;4.748;2022-09-09T05:26:13;15.60;99.90
15127;DHT22;7664;52.008;4.748;2022-09-09T05:28:43;15.60;99.90
15127;DHT22;7664;52.008;4.748;2022-09-09T05:31:12;15.70;99.90
15127;DHT22;7664;52.008;4.748;2022-09-09T05:33:41;15.70;99.90
15127;DHT22;7664;52.008;4.748;2022-09-09T05:36:12;15.70;99.90
15127;DHT22;7664;52.008;4.748;2022-09-09T05:38:40;15.70;99.90
15127;DHT22;7664;52.008;4.748;2022-09-09T05:41:09;15.70;99.90
15127;DHT22;7664;52.008;4.748;2022-09-09T05:43:38;15.70;99.90
15127;DHT22;7664;52.008;4.748;2022-09-09T05:46:08;15.70;99.90
15127;DHT22;7664;52.008;4.748;2022-09-09T05:48:38;15.80;99.90
15127;DHT22;7664;52.008;4.748;2022-09-09T05:51:08;15.80;99.90
15127;DHT22;7664;52.008;4.748;2022-09-09T05:53:37;15.90;99.90
15127;DHT22;7664;52.008;4.748;2022-09-09T05:56:07;15.90;99.90
15127;DHT22;7664;52.008;4.748;2022-09-09T05:58:37;16.00;99.90
15127;DHT22;7664;52.008;4.748;2022-09-09T06:01:07;16.20;99.90
15127;DHT22;7664;52.008;4.748;2022-09-09T06:03:36;16.30;99.90
15127;DHT22;7664;52.008;4.748;2022-09-09T06:06:06;16.50;99.90
15127;DHT22;7664;52.008;4.748;2022-09-09T06:08:38;16.70;99.90
15127;DHT22;7664;52.008;4.748;2022-09-09T06:11:08;16.80;99.90
15127;DHT22;7664;52.008;4.748;2022-09-09T06:13:37;16.90;99.90
15127;DHT22;7664;52.008;4.748;2022-09-09T06:16:06;17.00;99.90
15127;DHT22;7664;52.008;4.748;2022-09-09T06:18:35;17.00;99.90
15127;DHT22;7664;52.008;4.748;2022-09-09T06:21:05;17.10;99.90
15127;DHT22;7664;52.008;4.748;2022-09-09T06:23:33;17.10;99.90
15127;DHT22;7664;52.008;4.748;2022-09-09T06:26:06;17.10;99.90
15127;DHT22;7664;52.008;4.748;2022-09-09T06:28:35;17.20;99.90
15127;DHT22;7664;52.008;4.748;2022-09-09T06:31:05;17.20;99.90
15127;DHT22;7664;52.008;4.748;2022-09-09T06:33:34;17.20;99.90
15127;DHT22;7664;52.008;4.748;2022-09-09T06:36:03;17.20;99.90
15127;DHT22;7664;52.008;4.748;2022-09-09T06:38:31;17.10;99.90
15127;DHT22;7664;52.008;4.748;2022-09-09T06:41:00;17.10;99.90
15127;DHT22;7664;52.008;4.748;2022-09-09T06:43:29;17.10;99.90
15127;DHT22;7664;52.008;4.748;2022-09-09T06:45:58;17.10;99.90
15127;DHT22;7664;52.008;4.748;2022-09-09T06:48:27;17.20;99.90
15127;DHT22;7664;52.008;4.748;2022-09-09T06:51:03;17.20;99.90
15127;DHT22;7664;52.008;4.748;2022-09-09T06:53:31;17.30;99.90
15127;DHT22;7664;52.008;4.748;2022-09-09T06:56:00;17.40;99.90
15127;DHT22;7664;52.008;4.748;2022-09-09T06:58:30;17.40;99.90
15127;DHT22;7664;52.008;4.748;2022-09-09T07:01:04;17.40;99.90
15127;DHT22;7664;52.008;4.748;2022-09-09T07:03:32;17.40;99.90
15127;DHT22;7664;52.008;4.748;2022-09-09T07:06:00;17.40;99.90
15127;DHT22;7664;52.008;4.748;2022-09-09T07:08:28;17.40;99.90
15127;DHT22;7664;52.008;4.748;2022-09-09T07:11:02;17.50;99.90
15127;DHT22;7664;52.008;4.748;2022-09-09T07:13:38;17.50;99.90
15127;DHT22;7664;52.008;4.748;2022-09-09T07:16:08;17.50;99.90
15127;DHT22;7664;52.008;4.748;2022-09-09T07:18:36;17.50;99.90
15127;DHT22;7664;52.008;4.748;2022-09-09T07:21:04;17.50;99.90
15127;DHT22;7664;52.008;4.748;2022-09-09T07:23:33;17.60;99.90
15127;DHT22;7664;52.008;4.748;2022-09-09T07:26:02;17.60;99.90
15127;DHT22;7664;52.008;4.748;2022-09-09T07:28:30;17.60;99.90
15127;DHT22;7664;52.008;4.748;2022-09-09T07:31:01;17.70;99.90
15127;DHT22;7664;52.008;4.748;2022-09-09T07:33:30;17.80;99.90
15127;DHT22;7664;52.008;4.748;2022-09-09T07:36:05;17.80;99.90
15127;DHT22;7664;52.008;4.748;2022-09-09T07:38:37;17.80;99.90
15127;DHT22;7664;52.008;4.748;2022-09-09T07:41:07;17.90;99.90
15127;DHT22;7664;52.008;4.748;2022-09-09T07:43:38;17.90;99.90
15127;DHT22;7664;52.008;4.748;2022-09-09T07:46:09;18.00;99.90
15127;DHT22;7664;52.008;4.748;2022-09-09T07:48:44;18.10;99.90
15127;DHT22;7664;52.008;4.748;2022-09-09T07:51:15;18.10;99.90
15127;DHT22;7664;52.008;4.748;2022-09-09T07:53:46;18.10;99.90
15127;DHT22;7664;52.008;4.748;2022-09-09T07:56:16;18.10;99.90
15127;DHT22;7664;52.008;4.748;2022-09-09T07:58:46;18.10;99.90
15127;DHT22;7664;52.008;4.748;2022-09-09T08:01:17;18.10;99.90
15127;DHT22;7664;52.008;4.748;2022-09-09T08:03:51;18.20;99.90
15127;DHT22;7664;52.008;4.748;2022-09-09T08:06:22;18.10;99.90
15127;DHT22;7664;52.008;4.748;2022-09-09T08:08:51;18.10;99.90
15127;DHT22;7664;52.008;4.748;2022-09-09T08:11:22;18.10;99.90
15127;DHT22;7664;52.008;4.748;2022-09-09T08:13:51;18.00;99.90
15127;DHT22;7664;52.008;4.748;2022-09-09T08:16:25;18.00;99.90
15127;DHT22;7664;52.008;4.748;2022-09-09T08:18:54;18.00;99.90
15127;DHT22;7664;52.008;4.748;2022-09-09T08:21:23;18.00;99.90
15127;DHT22;7664;52.008;4.748;2022-09-09T08:23:52;18.00;99.90
15127;DHT22;7664;52.008;4.748;2022-09-09T08:26:25;18.00;99.90
15127;DHT22;7664;52.008;4.748;2022-09-09T08:28:56;18.00;99.90
15127;DHT22;7664;52.008;4.748;2022-09-09T08:31:27;18.00;99.90
15127;DHT22;7664;52.008;4.748;2022-09-09T08:33:56;18.00;99.90
15127;DHT22;7664;52.008;4.748;2022-09-09T08:36:27;18.00;99.90
15127;DHT22;7664;52.008;4.748;2022-09-09T08:38:57;18.10;99.90
15127;DHT22;7664;52.008;4.748;2022-09-09T08:41:36;18.10;99.90
15127;DHT22;7664;52.008;4.748;2022-09-09T08:44:07;18.20;99.90
15127;DHT22;7664;52.008;4.748;2022-09-09T08:46:45;18.20;99.90
15127;DHT22;7664;52.008;4.748;2022-09-09T08:49:24;18.30;99.90
15127;DHT22;7664;52.008;4.748;2022-09-09T08:51:57;18.30;99.90
15127;DHT22;7664;52.008;4.748;2022-09-09T08:54:31;18.30;99.90
15127;DHT22;7664;52.008;4.748;2022-09-09T08:57:21;18.30;99.90
15127;DHT22;7664;52.008;4.748;2022-09-09T08:59:54;18.30;99.90
15127;DHT22;7664;52.008;4.748;2022-09-09T09:02:27;18.30;99.90
15127;DHT22;7664;52.008;4.748;2022-09-09T09:05:09;18.30;99.90
15127;DHT22;7664;52.008;4.748;2022-09-09T09:07:52;18.30;99.90
15127;DHT22;7664;52.008;4.748;2022-09-09T09:10:33;18.30;99.90
15127;DHT22;7664;52.008;4.748;2022-09-09T09:13:13;18.40;99.90
15127;DHT22;7664;52.008;4.748;2022-09-09T09:15:44;18.20;99.90
15127;DHT22;7664;52.008;4.748;2022-09-09T09:18:16;18.20;99.90
15127;DHT22;7664;52.008;4.748;2022-09-09T09:20:51;18.20;99.90
15127;DHT22;7664;52.008;4.748;2022-09-09T09:23:22;18.20;99.90
15127;DHT22;7664;52.008;4.748;2022-09-09T09:25:52;18.10;99.90
15127;DHT22;7664;52.008;4.748;2022-09-09T09:28:25;18.10;99.90
15127;DHT22;7664;52.008;4.748;2022-09-09T09:30:56;18.10;99.90
15127;DHT22;7664;52.008;4.748;2022-09-09T09:33:30;18.20;99.90
15127;DHT22;7664;52.008;4.748;2022-09-09T09:36:00;18.20;99.90
15127;DHT22;7664;52.008;4.748;2022-09-09T09:38:29;18.20;99.90
15127;DHT22;7664;52.008;4.748;2022-09-09T09:41:17;18.30;99.90
15127;DHT22;7664;52.008;4.748;2022-09-09T09:43:55;18.30;99.90
15127;DHT22;7664;52.008;4.748;2022-09-09T09:46:24;18.30;99.90
15127;DHT22;7664;52.008;4.748;2022-09-09T09:48:59;18.20;99.90
15127;DHT22;7664;52.008;4.748;2022-09-09T09:51:29;18.20;99.90
15127;DHT22;7664;52.008;4.748;2022-09-09T09:54:14;18.20;99.90
15127;DHT22;7664;52.008;4.748;2022-09-09T09:56:43;18.20;99.90
15127;DHT22;7664;52.008;4.748;2022-09-09T09:59:31;18.30;99.90
15127;DHT22;7664;52.008;4.748;2022-09-09T10:02:19;18.40;99.90
15127;DHT22;7664;52.008;4.748;2022-09-09T10:04:49;18.50;99.90
15127;DHT22;7664;52.008;4.748;2022-09-09T10:07:28;18.70;99.90
15127;DHT22;7664;52.008;4.748;2022-09-09T10:09:57;19.00;99.90
15127;DHT22;7664;52.008;4.748;2022-09-09T10:12:36;19.20;99.90
15127;DHT22;7664;52.008;4.748;2022-09-09T10:15:22;19.50;99.90
15127;DHT22;7664;52.008;4.748;2022-09-09T10:17:59;19.50;99.90
15127;DHT22;7664;52.008;4.748;2022-09-09T10:20:39;19.60;99.90
15127;DHT22;7664;52.008;4.748;2022-09-09T10:23:21;19.50;99.90
15127;DHT22;7664;52.008;4.748;2022-09-09T10:26:02;19.60;99.90
15127;DHT22;7664;52.008;4.748;2022-09-09T10:28:44;19.60;99.90
15127;DHT22;7664;52.008;4.748;2022-09-09T10:31:21;19.60;99.90
15127;DHT22;7664;52.008;4.748;2022-09-09T10:33:51;19.60;99.90
15127;DHT22;7664;52.008;4.748;2022-09-09T10:36:26;19.60;99.90
15127;DHT22;7664;52.008;4.748;2022-09-09T10:38:59;19.70;99.90
15127;DHT22;7664;52.008;4.748;2022-09-09T10:41:40;19.70;99.90
15127;DHT22;7664;52.008;4.748;2022-09-09T10:44:26;19.70;99.90
15127;DHT22;7664;52.008;4.748;2022-09-09T10:47:13;19.80;99.90
15127;DHT22;7664;52.008;4.748;2022-09-09T10:50:01;19.80;99.90
15127;DHT22;7664;52.008;4.748;2022-09-09T10:52:39;19.80;99.90
15127;DHT22;7664;52.008;4.748;2022-09-09T10:55:13;19.80;99.90
15127;DHT22;7664;52.008;4.748;2022-09-09T10:57:45;19.80;99.90
15127;DHT22;7664;52.008;4.748;2022-09-09T11:00:17;19.80;99.90
15127;DHT22;7664;52.008;4.748;2022-09-09T11:02:48;19.90;99.90
15127;DHT22;7664;52.008;4.748;2022-09-09T11:05:20;19.90;99.90
15127;DHT22;7664;52.008;4.748;2022-09-09T11:07:55;19.80;99.90
15127;DHT22;7664;52.008;4.748;2022-09-09T11:10:33;19.70;99.90
15127;DHT22;7664;52.008;4.748;2022-09-09T11:13:05;19.80;99.90
15127;DHT22;7664;52.008;4.748;2022-09-09T11:15:41;19.80;99.90
15127;DHT22;7664;52.008;4.748;2022-09-09T11:18:14;19.80;99.90
15127;DHT22;7664;52.008;4.748;2022-09-09T11:20:44;19.80;99.90
15127;DHT22;7664;52.008;4.748;2022-09-09T11:23:18;19.90;99.90
15127;DHT22;7664;52.008;4.748;2022-09-09T11:25:52;20.10;99.90
15127;DHT22;7664;52.008;4.748;2022-09-09T11:28:41;20.30;99.90
15127;DHT22;7664;52.008;4.748;2022-09-09T11:31:28;20.50;99.90
15127;DHT22;7664;52.008;4.748;2022-09-09T11:34:14;20.60;99.90
15127;DHT22;7664;52.008;4.748;2022-09-09T11:37:10;20.70;99.90
15127;DHT22;7664;52.008;4.748;2022-09-09T11:39:59;20.80;99.90
15127;DHT22;7664;52.008;4.748;2022-09-09T11:42:32;20.90;99.90
15127;DHT22;7664;52.008;4.748;2022-09-09T11:45:22;20.90;99.90
15127;DHT22;7664;52.008;4.748;2022-09-09T11:47:53;20.80;99.90
15127;DHT22;7664;52.008;4.748;2022-09-09T11:50:33;20.80;99.90
15127;DHT22;7664;52.008;4.748;2022-09-09T11:53:15;20.80;99.90
15127;DHT22;7664;52.008;4.748;2022-09-09T11:56:03;20.80;99.90
15127;DHT22;7664;52.008;4.748;2022-09-09T11:58:37;20.70;99.90
15127;DHT22;7664;52.008;4.748;2022-09-09T12:01:15;20.70;99.90
15127;DHT22;7664;52.008;4.748;2022-09-09T12:03:45;20.60;99.90
15127;DHT22;7664;52.008;4.748;2022-09-09T12:06:18;20.60;99.90
15127;DHT22;7664;52.008;4.748;2022-09-09T12:08:50;20.60;99.90
15127;DHT22;7664;52.008;4.748;2022-09-09T12:11:28;20.60;99.90
15127;DHT22;7664;52.008;4.748;2022-09-09T12:13:58;20.60;99.90
15127;DHT22;7664;52.008;4.748;2022-09-09T12:16:32;20.50;99.90
15127;DHT22;7664;52.008;4.748;2022-09-09T12:19:06;20.50;99.90
15127;DHT22;7664;52.008;4.748;2022-09-09T12:21:40;20.60;99.90
15127;DHT22;7664;52.008;4.748;2022-09-09T12:24:15;20.60;99.90
15127;DHT22;7664;52.008;4.748;2022-09-09T12:26:53;20.70;99.90
15127;DHT22;7664;52.008;4.748;2022-09-09T12:29:29;20.70;99.90
15127;DHT22;7664;52.008;4.748;2022-09-09T12:32:04;20.70;99.90
15127;DHT22;7664;52.008;4.748;2022-09-09T12:34:38;20.50;99.90
15127;DHT22;7664;52.008;4.748;2022-09-09T12:37:15;20.50;99.90
15127;DHT22;7664;52.008;4.748;2022-09-09T12:39:49;20.40;99.90
15127;DHT22;7664;52.008;4.748;2022-09-09T12:42:21;20.30;99.90
15127;DHT22;7664;52.008;4.748;2022-09-09T12:44:57;20.20;99.90
15127;DHT22;7664;52.008;4.748;2022-09-09T12:47:32;20.20;99.90
15127;DHT22;7664;52.008;4.748;2022-09-09T12:50:03;20.10;99.90
15127;DHT22;7664;52.008;4.748;2022-09-09T12:52:34;20.00;99.90
15127;DHT22;7664;52.008;4.748;2022-09-09T12:55:05;20.10;99.90
15127;DHT22;7664;52.008;4.748;2022-09-09T12:57:38;20.10;99.90
15127;DHT22;7664;52.008;4.748;2022-09-09T13:00:13;20.00;99.90
15127;DHT22;7664;52.008;4.748;2022-09-09T13:02:47;20.10;99.90
15127;DHT22;7664;52.008;4.748;2022-09-09T13:05:21;20.10;99.90
15127;DHT22;7664;52.008;4.748;2022-09-09T13:07:49;20.00;99.90
15127;DHT22;7664;52.008;4.748;2022-09-09T13:10:23;20.00;99.90
15127;DHT22;7664;52.008;4.748;2022-09-09T13:13:15;19.90;99.90
15127;DHT22;7664;52.008;4.748;2022-09-09T13:15:53;19.80;99.90
15127;DHT22;7664;52.008;4.748;2022-09-09T13:18:23;19.80;99.90
15127;DHT22;7664;52.008;4.748;2022-09-09T13:20:51;19.80;99.90
15127;DHT22;7664;52.008;4.748;2022-09-09T13:23:20;19.80;99.90
15127;DHT22;7664;52.008;4.748;2022-09-09T13:25:56;19.80;99.90
15127;DHT22;7664;52.008;4.748;2022-09-09T13:28:27;19.70;99.90
15127;DHT22;7664;52.008;4.748;2022-09-09T13:31:01;19.70;99.90
15127;DHT22;7664;52.008;4.748;2022-09-09T13:33:32;19.60;99.90
15127;DHT22;7664;52.008;4.748;2022-09-09T13:36:02;19.50;99.90
15127;DHT22;7664;52.008;4.748;2022-09-09T13:38:35;19.50;99.90
15127;DHT22;7664;52.008;4.748;2022-09-09T13:41:05;19.40;99.90
15127;DHT22;7664;52.008;4.748;2022-09-09T13:43:38;19.40;99.90
15127;DHT22;7664;52.008;4.748;2022-09-09T13:46:25;19.40;99.90
15127;DHT22;7664;52.008;4.748;2022-09-09T13:48:55;19.50;99.90
15127;DHT22;7664;52.008;4.748;2022-09-09T13:51:30;19.60;99.90
15127;DHT22;7664;52.008;4.748;2022-09-09T13:53:59;19.80;99.90
15127;DHT22;7664;52.008;4.748;2022-09-09T13:56:27;19.80;99.90
15127;DHT22;7664;52.008;4.748;2022-09-09T13:58:57;19.90;99.90
15127;DHT22;7664;52.008;4.748;2022-09-09T14:01:24;20.00;99.90
15127;DHT22;7664;52.008;4.748;2022-09-09T14:03:55;20.00;99.90
15127;DHT22;7664;52.008;4.748;2022-09-09T14:06:23;20.10;99.90
15127;DHT22;7664;52.008;4.748;2022-09-09T14:08:52;20.10;99.90
15127;DHT22;7664;52.008;4.748;2022-09-09T14:11:21;20.10;99.90
15127;DHT22;7664;52.008;4.748;2022-09-09T14:13:49;20.00;99.90
15127;DHT22;7664;52.008;4.748;2022-09-09T14:16:19;19.90;99.90
15127;DHT22;7664;52.008;4.748;2022-09-09T14:18:48;19.80;99.90
15127;DHT22;7664;52.008;4.748;2022-09-09T14:21:17;19.70;99.90
15127;DHT22;7664;52.008;4.748;2022-09-09T14:23:45;19.60;99.90
15127;DHT22;7664;52.008;4.748;2022-09-09T14:26:13;19.50;99.90
15127;DHT22;7664;52.008;4.748;2022-09-09T14:28:41;19.40;99.90
15127;DHT22;7664;52.008;4.748;2022-09-09T14:31:26;19.40;99.90
15127;DHT22;7664;52.008;4.748;2022-09-09T14:33:54;19.30;99.90
15127;DHT22;7664;52.008;4.748;2022-09-09T14:36:22;19.30;99.90
15127;DHT22;7664;52.008;4.748;2022-09-09T14:38:50;19.20;99.90
15127;DHT22;7664;52.008;4.748;2022-09-09T14:41:19;19.20;99.90
15127;DHT22;7664;52.008;4.748;2022-09-09T14:43:49;19.20;99.90
15127;DHT22;7664;52.008;4.748;2022-09-09T14:46:19;19.20;99.90
15127;DHT22;7664;52.008;4.748;2022-09-09T14:48:49;19.20;99.90
15127;DHT22;7664;52.008;4.748;2022-09-09T14:51:19;19.20;99.90
15127;DHT22;7664;52.008;4.748;2022-09-09T14:53:51;19.20;99.90
15127;DHT22;7664;52.008;4.748;2022-09-09T14:56:22;19.30;99.90
15127;DHT22;7664;52.008;4.748;2022-09-09T14:58:53;19.30;99.90
15127;DHT22;7664;52.008;4.748;2022-09-09T15:01:22;19.30;99.90
15127;DHT22;7664;52.008;4.748;2022-09-09T15:03:53;19.40;99.90
15127;DHT22;7664;52.008;4.748;2022-09-09T15:06:22;19.40;99.90
15127;DHT22;7664;52.008;4.748;2022-09-09T15:08:52;19.50;99.90
15127;DHT22;7664;52.008;4.748;2022-09-09T15:11:20;19.50;99.90
15127;DHT22;7664;52.008;4.748;2022-09-09T15:13:52;19.60;99.90
15127;DHT22;7664;52.008;4.748;2022-09-09T15:16:24;19.70;99.90
15127;DHT22;7664;52.008;4.748;2022-09-09T15:18:55;19.70;99.90
15127;DHT22;7664;52.008;4.748;2022-09-09T15:21:24;19.80;99.90
15127;DHT22;7664;52.008;4.748;2022-09-09T15:23:52;19.90;99.90
15127;DHT22;7664;52.008;4.748;2022-09-09T15:26:20;19.90;99.90
15127;DHT22;7664;52.008;4.748;2022-09-09T15:28:49;20.00;99.90
15127;DHT22;7664;52.008;4.748;2022-09-09T15:31:19;20.10;99.90
15127;DHT22;7664;52.008;4.748;2022-09-09T15:33:48;20.10;99.90
15127;DHT22;7664;52.008;4.748;2022-09-09T15:36:19;20.20;99.90
15127;DHT22;7664;52.008;4.748;2022-09-09T15:38:49;20.20;99.90
15127;DHT22;7664;52.008;4.748;2022-09-09T15:41:18;20.20;99.90
15127;DHT22;7664;52.008;4.748;2022-09-09T15:43:48;20.20;99.90
15127;DHT22;7664;52.008;4.748;2022-09-09T15:46:23;20.10;99.90
15127;DHT22;7664;52.008;4.748;2022-09-09T15:48:55;20.20;99.90
15127;DHT22;7664;52.008;4.748;2022-09-09T15:51:25;20.10;99.90
15127;DHT22;7664;52.008;4.748;2022-09-09T15:54:09;20.10;99.90
15127;DHT22;7664;52.008;4.748;2022-09-09T15:56:38;20.20;99.90
15127;DHT22;7664;52.008;4.748;2022-09-09T15:59:06;20.10;99.90
15127;DHT22;7664;52.008;4.748;2022-09-09T16:01:35;20.10;99.90
15127;DHT22;7664;52.008;4.748;2022-09-09T16:04:04;20.00;99.90
15127;DHT22;7664;52.008;4.748;2022-09-09T16:06:34;20.00;99.90
15127;DHT22;7664;52.008;4.748;2022-09-09T16:09:04;20.10;99.90
15127;DHT22;7664;52.008;4.748;2022-09-09T16:11:35;20.10;99.90
15127;DHT22;7664;52.008;4.748;2022-09-09T16:14:03;20.10;99.90
15127;DHT22;7664;52.008;4.748;2022-09-09T16:16:34;20.10;99.90
15127;DHT22;7664;52.008;4.748;2022-09-09T16:19:04;20.00;99.90
15127;DHT22;7664;52.008;4.748;2022-09-09T16:21:36;20.00;99.90